Thunder radar more information blitzortung!


Rain radar more information rain snow radar


Visit our other weather sites:

Template documentation
and downloads

And another site



There are no active watches, warnings or advisories

Nearby METAR Reports

   
EHVK - Volkel Rnlafb, Netherlands
Distance from station: SW 11 mi
Updated: Jul 15 2020 8:37 pm
Mostly Cloudy  
Mostly Cloudy  
   Wind: SSW 3.5 mph
Wind: SSW 3.5 mph
Temperature: 59°F
Dew Point: 55.4°F
Humidity: 88%
Barometer: 30 inHg
Clouds: Mostly Cloudy
Visibility: More than 6 mi
Cloud details: Few Clouds 4800 ft,
Mostly Cloudy 5200 ft,
Mostly Cloudy 6000 ft
EHVK 160037Z AUTO 20003KT 9999 FEW048 BKN052 BKN060 15/13 Q1016 BLU
EDLV - Niederrhein, Germany
Distance from station: SE 15 mi
Updated: Jul 15 2020 5:50 pm
NOT Current
Clear  
Clear  
   Wind: South 5.8 mph
Wind: South 5.8 mph
Temperature: 60.8°F
Dew Point: 55.4°F
Humidity: 83%
Barometer: 30 inHg
Visibility: More than 6 mi
Cloud details: Clear
EDLV 152150Z 18005KT CAVOK 16/13 Q1016
EHDL - Deelen Rnlafb, Netherlands
Distance from station: N 22 mi
Updated: Jul 15 2020 8:25 pm
Light Drizzle, Overcast  
Light Drizzle, Overcast  
   Wind: varies 1.2 mph
Wind: varies 1.2 mph
Temperature: 57.2°F
Dew Point: 57.2°F
Humidity: 100%
Barometer: 30 inHg
Clouds: Overcast
Visibility: 3 mi
Cloud details: Few Clouds 1500 ft,
Partly Cloudy 4500 ft,
Overcast 5000 ft
EHDL 160025Z AUTO VRB01KT 4000 -DZ FEW015CB SCT045 OVC050 14/14 Q1016 GRN
EHEH - Eindhoven Rnlafb, Netherlands
Distance from station: SW 30 mi
Updated: Jul 15 2020 8:37 pm
Overcast  
Overcast  
   Wind: SW 4.6 mph
Wind: SW 4.6 mph
Temperature: 59°F
Dew Point: 53.6°F
Humidity: 82%
Barometer: 30 inHg
Clouds: Overcast
Visibility: More than 6 mi
Cloud details: Overcast 3800 ft
EHEH 160037Z AUTO 22004KT 9999 OVC038 15/12 Q1016 BLU
EHGR - Gilze-Rijen Rnla, Netherlands
Distance from station: WSW 43 mi
Updated: Jul 15 2020 8:35 pm
Light Rain, Overcast  
Light Rain, Overcast  
   Wind: SW 3.5 mph
Wind: SW 3.5 mph
Temperature: 59°F
Dew Point: 53.6°F
Humidity: 82%
Barometer: 30 inHg
Clouds: Overcast
Visibility: More than 6 mi
Cloud details: Few Clouds 2200 ft,
Mostly Cloudy 2600 ft,
Overcast 3000 ft
EHGR 160035Z AUTO 22003KT 210V270 9999 -RA FEW022 BKN026 OVC030 15/12 Q1016 BLU
EBBL - Kleine-Brogel(Ba, Belgium
Distance from station: SSW 44 mi
Updated: Jul 15 2020 8:25 pm
Overcast  
Overcast  
   Wind: WSW 4.6 mph
Wind: WSW 4.6 mph
Temperature: 59°F
Dew Point: 55.4°F
Humidity: 88%
Barometer: 30 inHg
Clouds: Overcast
Visibility: More than 6 mi
Cloud details: Overcast 4600 ft
EBBL 160025Z AUTO 25004KT 9999 OVC046/// 15/13 Q1016 BLU

Script developed by  Saratoga-weather.org Adapted for the template by  Weerstation Leuven

You find our weather info also at:

Weather Underground

AWEKAS

Citizen Weather Observer Program (CWOP)

HAMweather, WeatherForYou, PWS Weather

Equipment we use:

Weather-station
Davis VP2

Weather-program
Weather Display

Weather-server
HP ProDesk 600 G1

Provider
1&1 IONOS

Davis VP2

Weather Display

HP ProDesk 600 G1

1&1 IONOS